Time;durP1;ratioP1;P1;durP2;ratioP2;P2;SDS_P1;SDS_P2;PMS_P1;PMS_P2;Temp;Humidity;BMP_temperature;BMP_pressure;BME280_temperature;BME280_humidity;BME280_pressure;Samples;Min_cycle;Max_cycle;Signal;HPM_P1;HPM_P2
2022/05/17 00:00:25;;;;;;;13.63;5.53;;;;;;;19.77;65.08;98265.72;8379394;28;20249;-75
2022/05/17 00:04:28;;;;;;;9.57;5.50;;;;;;;19.81;64.82;98253.19;8404562;28;20243;-75
2022/05/17 00:08:31;;;;;;;10.47;5.67;;;;;;;19.84;64.72;98264.28;8447429;28;20539;-76
2022/05/17 00:12:36;;;;;;;6.87;5.00;;;;;;;19.80;64.93;98260.22;8447022;28;20522;-75
2022/05/17 00:16:40;;;;;;;10.47;5.47;;;;;;;19.91;64.31;98264.63;8446997;28;20228;-76
2022/05/17 00:20:43;;;;;;;9.87;5.37;;;;;;;19.87;64.55;98263.22;8447220;28;20233;-76
2022/05/17 00:24:46;;;;;;;8.83;5.00;;;;;;;19.92;64.43;98269.78;8446982;28;20238;-76
2022/05/17 00:28:51;;;;;;;10.27;4.70;;;;;;;19.88;64.40;98262.25;8447122;28;20232;-75
2022/05/17 00:32:53;;;;;;;9.07;4.73;;;;;;;19.90;64.37;98263.81;8446813;28;20224;-76
2022/05/17 00:36:57;;;;;;;7.87;4.77;;;;;;;19.90;63.75;98276.13;8446893;28;20231;-76
2022/05/17 00:41:00;;;;;;;9.53;4.57;;;;;;;19.86;63.96;98270.25;8446638;28;20226;-76
2022/05/17 00:45:07;;;;;;;7.53;4.80;;;;;;;19.87;63.92;98266.66;8446614;28;20232;-76
2022/05/17 00:49:13;;;;;;;8.37;5.30;;;;;;;19.67;64.60;98268.19;8446867;28;20561;-76
2022/05/17 00:53:20;;;;;;;8.93;4.90;;;;;;;19.80;63.77;98262.00;8446610;28;20236;-75
2022/05/17 00:57:29;;;;;;;8.00;4.90;;;;;;;19.85;63.63;98259.88;8446043;28;20426;-75
2022/05/17 01:01:33;;;;;;;9.10;5.00;;;;;;;19.80;64.17;98256.75;8446136;28;20250;-76
2022/05/17 01:05:42;;;;;;;9.40;5.47;;;;;;;19.81;63.78;98264.53;8446259;28;20240;-75
2022/05/17 01:09:45;;;;;;;11.90;5.10;;;;;;;19.82;64.01;98268.84;8446455;28;20227;-76
2022/05/17 01:18:10;;;;;;;8.03;5.00;;;;;;;19.87;63.63;98268.47;8446371;28;20238;-75
2022/05/17 01:22:15;;;;;;;8.73;5.07;;;;;;;19.85;63.59;98267.75;8446080;28;20240;-76
2022/05/17 01:26:21;;;;;;;8.70;5.10;;;;;;;19.79;63.79;98266.44;8446150;28;20236;-76
2022/05/17 01:30:28;;;;;;;9.30;5.30;;;;;;;19.81;63.58;98274.19;8459167;28;20235;-75
2022/05/17 01:34:31;;;;;;;8.87;5.30;;;;;;;19.73;64.15;98270.38;8452005;28;20431;-75
2022/05/17 01:38:35;;;;;;;9.07;5.10;;;;;;;19.76;63.59;98271.91;8451834;28;20231;-75
2022/05/17 01:42:38;;;;;;;10.43;5.50;;;;;;;19.67;64.16;98270.81;8451657;28;20228;-75
2022/05/17 01:46:41;;;;;;;10.37;5.70;;;;;;;19.76;63.73;98271.09;8451595;28;20430;-75
2022/05/17 01:50:44;;;;;;;7.73;5.50;;;;;;;19.73;64.21;98280.06;8451402;28;20238;-75
2022/05/17 01:54:49;;;;;;;10.50;5.90;;;;;;;19.65;63.74;98271.91;8451574;28;20508;-75
2022/05/17 01:58:51;;;;;;;9.83;5.80;;;;;;;19.66;63.89;98266.50;8451212;28;20385;-75
2022/05/17 02:02:54;;;;;;;11.43;5.97;;;;;;;19.66;63.68;98268.31;8451114;28;20224;-76
2022/05/17 02:06:58;;;;;;;10.50;6.60;;;;;;;19.64;63.47;98268.41;8451095;28;20239;-76
2022/05/17 02:11:02;;;;;;;10.17;6.47;;;;;;;19.70;63.50;98272.34;8450884;28;20231;-75
2022/05/17 02:15:07;;;;;;;14.60;7.20;;;;;;;19.62;63.43;98272.13;8450724;28;20231;-75
2022/05/17 02:19:10;;;;;;;18.80;7.20;;;;;;;19.66;63.85;98270.94;8450686;28;20238;-75
2022/05/17 02:23:13;;;;;;;12.30;7.13;;;;;;;19.57;64.04;98269.00;8450467;28;20241;-76
2022/05/17 02:27:18;;;;;;;9.57;7.07;;;;;;;19.58;63.53;98271.50;8450451;28;20228;-75
2022/05/17 02:31:20;;;;;;;12.27;7.33;;;;;;;19.64;63.44;98268.41;8450191;28;20233;-76
2022/05/17 02:35:24;;;;;;;13.70;7.80;;;;;;;19.60;63.10;98277.50;8457666;28;20244;-75
2022/05/17 02:39:27;;;;;;;12.27;7.77;;;;;;;19.56;63.67;98288.34;8449749;28;20232;-75
2022/05/17 02:43:31;;;;;;;10.47;8.00;;;;;;;19.40;63.68;98296.53;8449552;28;20243;-75
2022/05/17 02:47:40;;;;;;;11.83;7.53;;;;;;;19.39;63.54;98295.72;8449761;28;20584;-75
2022/05/17 02:51:43;;;;;;;9.97;8.33;;;;;;;19.39;63.46;98300.97;8449623;28;20227;-76
2022/05/17 02:55:46;;;;;;;16.47;7.87;;;;;;;19.45;63.61;98304.91;8449597;28;20228;-76
2022/05/17 02:59:51;;;;;;;14.37;8.43;;;;;;;19.40;63.74;98304.41;8449111;28;20235;-76
2022/05/17 03:03:54;;;;;;;14.57;8.30;;;;;;;19.40;63.64;98302.66;8449158;28;20505;-76
2022/05/17 03:07:56;;;;;;;15.40;8.10;;;;;;;19.34;63.92;98301.31;8449176;28;20224;-76
2022/05/17 03:12:02;;;;;;;10.57;8.30;;;;;;;19.38;63.48;98315.06;8449141;28;20254;-76
2022/05/17 03:16:10;;;;;;;14.53;8.37;;;;;;;19.33;63.66;98317.19;8448702;28;20234;-76
2022/05/17 03:20:13;;;;;;;13.50;8.50;;;;;;;19.24;64.02;98325.75;8448734;28;20510;-76
2022/05/17 03:24:16;;;;;;;16.93;8.73;;;;;;;19.30;63.24;98323.47;8448572;28;20256;-76
2022/05/17 03:28:39;;;;;;;15.73;9.23;;;;;;;19.24;63.39;98337.06;8448043;28;20234;-76
2022/05/17 03:32:44;;;;;;;11.93;8.77;;;;;;;19.18;63.21;98341.97;8448113;28;20522;-76
2022/05/17 03:36:46;;;;;;;13.83;9.23;;;;;;;19.19;63.34;98347.09;8447973;28;20288;-76
2022/05/17 03:40:50;;;;;;;13.37;9.07;;;;;;;19.15;63.29;98358.75;8447775;28;20551;-76
2022/05/17 03:44:53;;;;;;;13.73;9.73;;;;;;;19.08;63.44;98355.75;8447882;28;20228;-76
2022/05/17 03:49:00;;;;;;;14.43;9.73;;;;;;;19.07;63.43;98361.94;8447860;28;20228;-76
2022/05/17 03:53:04;;;;;;;15.13;10.00;;;;;;;19.12;63.19;98366.88;8447549;28;20239;-76
2022/05/17 03:57:09;;;;;;;13.37;9.90;;;;;;;18.97;63.52;98362.75;8447924;28;20222;-76
2022/05/17 04:01:17;;;;;;;15.57;9.50;;;;;;;19.09;63.25;98364.47;8447542;28;20426;-76
2022/05/17 04:05:22;;;;;;;13.13;9.97;;;;;;;19.03;63.01;98360.50;8447258;28;20404;-76
2022/05/17 04:09:25;;;;;;;15.50;9.77;;;;;;;19.06;63.15;98372.56;8447043;28;20412;-76
2022/05/17 04:13:29;;;;;;;17.50;10.37;;;;;;;19.04;62.68;98366.56;8447221;28;20231;-75
2022/05/17 04:17:33;;;;;;;15.73;9.83;;;;;;;19.00;63.02;98370.38;8447018;28;20266;-76
2022/05/17 04:21:37;;;;;;;13.37;9.70;;;;;;;19.00;62.92;98373.00;8446969;28;20236;-75
2022/05/17 04:25:40;;;;;;;14.53;9.87;;;;;;;19.05;62.73;98360.38;8447029;28;20297;-76
2022/05/17 04:29:43;;;;;;;14.50;9.33;;;;;;;19.08;62.68;98368.88;8447214;28;20228;-76
2022/05/17 04:33:46;;;;;;;14.57;9.80;;;;;;;19.11;62.58;98376.53;8446858;28;20224;-76
2022/05/17 04:37:50;;;;;;;15.77;10.00;;;;;;;19.03;62.79;98376.25;8447061;28;20233;-76
2022/05/17 04:41:53;;;;;;;16.00;9.57;;;;;;;19.11;62.49;98396.69;8446842;28;20530;-75
2022/05/17 04:45:56;;;;;;;15.73;9.90;;;;;;;19.17;62.57;98388.34;8446751;28;20230;-76
2022/05/17 04:49:59;;;;;;;12.17;9.33;;;;;;;19.19;62.21;98396.13;8446788;28;20557;-76
2022/05/17 04:54:04;;;;;;;14.70;9.23;;;;;;;19.24;62.19;98404.50;8446580;28;20235;-75
2022/05/17 04:58:07;;;;;;;16.33;9.37;;;;;;;19.19;62.13;98402.22;8443692;28;20417;-76
2022/05/17 05:02:10;;;;;;;16.87;9.77;;;;;;;19.14;62.79;98407.78;8473029;28;20301;-73
2022/05/17 05:06:13;;;;;;;14.57;9.63;;;;;;;19.16;62.44;98420.00;8466357;28;20551;-76
2022/05/17 05:10:18;;;;;;;14.83;9.33;;;;;;;19.17;62.19;98419.84;8452718;28;20530;-75
2022/05/17 05:14:21;;;;;;;14.53;9.80;;;;;;;19.18;62.12;98423.34;8452608;28;20430;-77
2022/05/17 05:18:25;;;;;;;16.67;9.90;;;;;;;19.27;62.15;98425.31;8452030;28;20244;-75
2022/05/17 05:22:31;;;;;;;14.87;9.50;;;;;;;19.39;62.18;98429.66;8452429;28;20246;-76
2022/05/17 05:26:35;;;;;;;12.10;9.03;;;;;;;19.57;61.80;98427.44;8452092;28;20230;-76
2022/05/17 05:30:39;;;;;;;13.77;9.60;;;;;;;19.61;61.29;98428.91;8452025;28;20223;-77
2022/05/17 05:34:41;;;;;;;18.93;10.07;;;;;;;19.73;61.09;98433.28;8451800;28;20244;-77
2022/05/17 05:38:44;;;;;;;15.33;10.07;;;;;;;19.84;61.09;98440.38;8451885;28;20223;-77
2022/05/17 05:42:50;;;;;;;15.00;10.37;;;;;;;19.87;60.85;98437.50;8451657;28;20537;-76
2022/05/17 05:46:54;;;;;;;13.00;10.13;;;;;;;19.93;61.15;98436.19;8451873;28;20288;-77
2022/05/17 05:50:58;;;;;;;22.90;10.37;;;;;;;20.06;61.31;98436.94;8451646;28;20234;-77
2022/05/17 05:55:01;;;;;;;14.30;11.20;;;;;;;20.22;61.03;98441.88;8451615;28;20218;-75
2022/05/17 05:59:06;;;;;;;16.07;12.13;;;;;;;20.33;60.73;98443.66;8461290;28;20239;-75
2022/05/17 06:03:09;;;;;;;17.03;11.60;;;;;;;20.44;60.67;98448.94;8450874;28;20232;-76
2022/05/17 06:07:12;;;;;;;16.73;12.17;;;;;;;20.48;60.67;98452.19;8444788;28;20226;-76
2022/05/17 06:11:15;;;;;;;18.77;12.37;;;;;;;20.35;60.95;98446.19;8433356;28;20229;-76
2022/05/17 06:15:20;;;;;;;17.17;12.27;;;;;;;20.50;60.73;98445.88;8432786;28;20225;-76
2022/05/17 06:19:24;;;;;;;15.87;12.87;;;;;;;20.53;60.39;98442.16;8466352;28;20447;-75
2022/05/17 06:23:27;;;;;;;19.20;12.70;;;;;;;20.75;59.73;98453.66;8466391;28;20232;-76
2022/05/17 06:27:30;;;;;;;21.67;14.03;;;;;;;21.05;58.88;98440.69;8469540;28;20229;-75
2022/05/17 06:31:35;;;;;;;18.20;12.70;;;;;;;21.32;58.86;98446.50;8464082;28;20228;-76
2022/05/17 06:35:38;;;;;;;19.27;13.50;;;;;;;21.38;58.76;98449.50;8466248;28;20256;-76
2022/05/17 06:39:42;;;;;;;15.67;12.77;;;;;;;21.61;57.92;98449.41;8477908;28;20231;-76
2022/05/17 06:43:44;;;;;;;17.90;12.83;;;;;;;21.74;58.23;98454.50;8483687;28;20252;-76
2022/05/17 06:47:49;;;;;;;15.10;12.17;;;;;;;21.75;57.34;98456.19;8480258;28;20222;-76
2022/05/17 06:51:53;;;;;;;18.07;12.00;;;;;;;21.85;56.57;98460.56;8478653;28;20225;-77
2022/05/17 06:55:56;;;;;;;18.53;11.17;;;;;;;22.15;55.86;98460.78;8449523;28;20403;-76
2022/05/17 06:59:59;;;;;;;18.87;13.07;;;;;;;22.02;55.70;98460.97;8472876;28;20236;-76
2022/05/17 07:04:04;;;;;;;19.33;12.43;;;;;;;22.17;55.20;98464.97;8469037;28;20230;-77
2022/05/17 07:08:07;;;;;;;12.83;10.97;;;;;;;22.37;54.81;98465.97;8483114;28;20553;-77
2022/05/17 07:16:31;;;;;;;15.50;12.13;;;;;;;22.42;54.45;98476.09;8482089;28;20229;-76
2022/05/17 07:20:36;;;;;;;23.10;12.20;;;;;;;22.10;54.53;98466.44;8481228;28;20286;-76
2022/05/17 07:24:41;;;;;;;16.43;12.87;;;;;;;21.98;55.17;98476.22;8481630;28;20234;-76
2022/05/17 07:28:45;;;;;;;21.83;13.37;;;;;;;21.84;55.06;98477.38;8482359;28;20229;-76
2022/05/17 07:32:48;;;;;;;17.53;11.27;;;;;;;21.99;55.25;98483.16;8482316;28;20536;-77
2022/05/17 07:36:53;;;;;;;17.00;12.53;;;;;;;21.89;55.59;98476.16;8480533;28;20235;-76
2022/05/17 07:40:56;;;;;;;16.70;12.53;;;;;;;22.06;55.43;98483.47;8478856;28;20233;-77
2022/05/17 07:45:02;;;;;;;16.83;12.23;;;;;;;22.95;53.02;98473.28;8478384;28;20226;-77
2022/05/17 08:10:28;;;;;;;19.50;11.73;;;;;;;23.87;47.58;98477.50;7407537;28;20242;-76
2022/05/17 08:14:31;;;;;;;23.30;11.70;;;;;;;24.39;46.21;98467.41;8413561;28;20238;-76
2022/05/17 08:18:35;;;;;;;18.70;12.00;;;;;;;24.61;46.62;98475.16;8413548;28;20227;-77
2022/05/17 08:22:39;;;;;;;20.43;10.90;;;;;;;24.54;46.13;98470.47;8413155;28;20236;-77
2022/05/17 08:31:04;;;;;;;37.33;17.37;;;;;;;25.54;44.41;98462.69;8413827;28;20231;-76
2022/05/17 08:35:08;;;;;;;17.13;11.83;;;;;;;25.46;44.12;98463.44;8413425;28;20301;-77
2022/05/17 08:39:11;;;;;;;17.90;11.70;;;;;;;25.83;43.63;98469.56;8419269;28;20228;-77
2022/05/17 08:43:43;;;;;;;18.43;12.63;;;;;;;25.56;41.60;98473.97;8419782;28;20239;-77
2022/05/17 08:47:51;;;;;;;17.53;11.33;;;;;;;24.80;43.87;98469.78;8420083;28;20231;-77
2022/05/17 08:52:07;;;;;;;16.67;10.00;;;;;;;24.85;43.73;98474.66;8419822;28;20420;-77
2022/05/17 08:56:10;;;;;;;14.27;9.60;;;;;;;25.75;41.77;98481.78;8419860;28;20251;-78
2022/05/17 09:00:19;;;;;;;17.63;9.63;;;;;;;25.93;41.06;98478.31;8452806;28;20228;-77
2022/05/17 09:05:02;;;;;;;15.77;10.07;;;;;;;26.10;40.31;98480.13;8449344;28;20519;-74
2022/05/17 09:09:08;;;;;;;16.20;10.30;;;;;;;24.65;41.85;98482.66;8436145;28;20249;-78
2022/05/17 09:13:15;;;;;;;16.13;8.60;;;;;;;25.61;41.52;98479.66;8436293;28;20254;-77
2022/05/17 09:17:22;;;;;;;13.30;8.37;;;;;;;26.03;40.42;98472.94;8435937;28;20349;-78
2022/05/17 09:21:29;;;;;;;11.83;7.73;;;;;;;25.80;39.81;98475.19;8427563;28;20223;-77
2022/05/17 09:25:47;;;;;;;12.13;8.90;;;;;;;26.02;39.20;98479.22;8435750;28;20579;-77
2022/05/17 09:29:55;;;;;;;12.57;8.30;;;;;;;26.69;38.68;98476.84;8435658;28;20236;-77
2022/05/17 09:34:02;;;;;;;13.30;7.10;;;;;;;25.36;39.12;98476.78;8435486;28;20225;-77
2022/05/17 09:38:06;;;;;;;13.10;7.40;;;;;;;25.25;39.73;98478.81;8435214;28;20542;-77
2022/05/17 09:42:26;;;;;;;12.40;7.20;;;;;;;26.04;39.57;98479.91;8435198;28;20238;-77
2022/05/17 09:46:33;;;;;;;15.17;7.50;;;;;;;26.48;38.05;98475.41;8434685;28;20232;-76
2022/05/17 09:55:24;;;;;;;12.13;7.00;;;;;;;26.82;37.86;98482.56;8434443;28;20598;-77
2022/05/17 09:59:28;;;;;;;12.30;6.10;;;;;;;25.69;40.24;98478.91;8438730;28;20443;-77
2022/05/17 10:03:34;;;;;;;10.63;6.37;;;;;;;26.74;38.15;98481.72;8451431;28;20235;-77
2022/05/17 10:07:39;;;;;;;8.03;6.20;;;;;;;27.35;37.02;98467.34;8451064;28;20227;-76
2022/05/17 10:11:46;;;;;;;11.40;6.50;;;;;;;27.63;36.90;98462.56;8450956;28;20247;-76
2022/05/17 10:15:52;;;;;;;11.83;6.23;;;;;;;26.06;39.07;98470.78;8461474;28;20538;-76
2022/05/17 10:19:58;;;;;;;9.40;5.77;;;;;;;26.36;38.05;98466.03;8467471;28;20228;-76
2022/05/17 10:24:09;;;;;;;8.30;6.60;;;;;;;25.58;38.94;98461.41;8464453;28;20235;-76
2022/05/17 10:28:17;;;;;;;12.07;6.00;;;;;;;26.80;37.22;98463.28;8463468;28;20524;-77
2022/05/17 10:32:26;;;;;;;9.80;5.80;;;;;;;27.33;36.10;98457.88;8461145;28;20525;-76
2022/05/17 10:36:46;;;;;;;10.27;5.77;;;;;;;27.58;36.65;98464.88;8483661;28;20232;-75
2022/05/17 10:40:55;;;;;;;9.10;5.33;;;;;;;27.75;35.16;98463.06;8483581;28;20232;-76
2022/05/17 10:44:59;;;;;;;8.50;5.10;;;;;;;27.92;35.63;98466.59;8485075;28;20523;-78
2022/05/17 10:49:11;;;;;;;11.20;5.53;;;;;;;27.87;34.46;98459.09;8484655;28;20227;-80
2022/05/17 10:53:32;;;;;;;10.23;6.00;;;;;;;27.52;35.12;98438.94;8484412;28;20233;-78
2022/05/17 10:57:52;;;;;;;10.60;5.23;;;;;;;26.69;36.26;98445.84;8476735;28;20237;-79
2022/05/17 11:02:02;;;;;;;10.37;5.10;;;;;;;27.90;34.26;98436.66;8449629;28;20252;-80
2022/05/17 11:06:19;;;;;;;8.13;5.30;;;;;;;27.17;33.05;98438.19;8449927;28;20229;-79
2022/05/17 11:10:33;;;;;;;9.03;4.70;;;;;;;27.23;34.95;98447.34;8449735;28;20420;-79
2022/05/17 11:14:43;;;;;;;12.07;5.33;;;;;;;27.22;35.14;98441.16;8421877;28;20229;-79
2022/05/17 11:18:54;;;;;;;8.47;5.00;;;;;;;27.26;35.17;98437.25;8443151;28;20230;-79
2022/05/17 11:23:10;;;;;;;7.27;5.17;;;;;;;27.87;34.26;98440.47;8440798;28;20228;-80
2022/05/17 11:27:25;;;;;;;8.67;5.20;;;;;;;27.60;34.90;98443.44;8423521;28;20237;-78
2022/05/17 11:31:51;;;;;;;9.40;4.57;;;;;;;27.35;35.59;98438.09;8415059;28;20236;-79
2022/05/17 11:35:55;;;;;;;8.00;4.40;;;;;;;28.00;35.94;98437.31;8414611;28;20233;-78
2022/05/17 11:39:58;;;;;;;10.60;4.17;;;;;;;28.25;32.84;98431.94;8414936;28;20240;-78
2022/05/17 11:44:23;;;;;;;8.43;3.57;;;;;;;28.62;32.55;98422.56;8414884;28;20418;-79
2022/05/17 11:48:48;;;;;;;6.57;3.47;;;;;;;28.24;32.72;98427.63;8413885;28;20234;-78
2022/05/17 11:52:59;;;;;;;6.60;3.40;;;;;;;28.58;31.74;98429.25;8414564;28;20537;-79
2022/05/17 11:57:02;;;;;;;10.93;4.00;;;;;;;29.06;32.55;98424.69;8420495;28;20229;-79
2022/05/17 12:01:45;;;;;;;6.37;3.90;;;;;;;29.13;32.83;98416.84;8448645;28;20222;-79
2022/05/17 12:05:58;;;;;;;8.90;4.03;;;;;;;28.98;31.04;98409.56;8448130;28;20226;-77
2022/05/17 12:10:13;;;;;;;8.30;3.87;;;;;;;28.15;32.60;98413.50;8444806;28;20525;-80
2022/05/17 12:14:22;;;;;;;6.83;3.67;;;;;;;28.15;33.88;98405.50;8449374;28;20231;-78
2022/05/17 12:18:35;;;;;;;6.63;3.37;;;;;;;27.67;34.20;98415.19;8443105;28;20241;-77
2022/05/17 12:22:45;;;;;;;8.10;3.20;;;;;;;27.20;34.82;98407.78;8451827;28;20234;-79
2022/05/17 12:26:58;;;;;;;6.80;3.00;;;;;;;28.01;34.13;98401.72;8464769;28;20229;-78
2022/05/17 12:31:02;;;;;;;6.50;3.23;;;;;;;27.30;35.23;98403.16;8466602;28;20259;-77
2022/05/17 12:35:07;;;;;;;6.67;3.47;;;;;;;27.30;34.55;98403.16;8471689;28;20411;-78
2022/05/17 12:43:37;;;;;;;8.97;3.30;;;;;;;26.38;34.96;98412.78;8385730;28;20240;-78
2022/05/17 12:47:44;;;;;;;8.70;2.90;;;;;;;25.99;36.08;98407.88;8462225;28;20226;-77
2022/05/17 12:51:52;;;;;;;11.93;3.63;;;;;;;26.25;35.23;98403.41;8473184;28;20523;-78
2022/05/17 12:56:04;;;;;;;9.03;3.10;;;;;;;26.64;34.99;98405.63;8459709;28;20238;-77
2022/05/17 13:00:11;;;;;;;5.17;3.07;;;;;;;26.72;35.34;98394.19;8448382;28;20254;-77
2022/05/17 13:04:17;;;;;;;6.30;2.97;;;;;;;27.61;33.88;98398.06;8446863;28;20333;-77
2022/05/17 13:08:21;;;;;;;6.13;2.80;;;;;;;26.82;34.33;98394.06;8446760;28;20228;-77
2022/05/17 13:12:28;;;;;;;5.37;2.97;;;;;;;26.74;33.41;98394.03;8446006;28;20236;-77
2022/05/17 13:16:36;;;;;;;4.03;2.57;;;;;;;26.65;33.96;98388.69;8446804;28;20229;-76
2022/05/17 13:20:39;;;;;;;5.13;2.40;;;;;;;26.48;34.89;98382.47;8446542;28;20231;-76
2022/05/17 13:24:45;;;;;;;5.23;2.63;;;;;;;26.29;35.88;98388.84;8449618;28;20305;-76
2022/05/17 13:28:49;;;;;;;5.23;2.77;;;;;;;26.02;35.55;98383.69;8452622;28;20345;-77
2022/05/17 13:32:53;;;;;;;7.37;2.70;;;;;;;25.96;36.58;98379.00;8464269;28;20222;-77
2022/05/17 13:37:04;;;;;;;8.77;2.83;;;;;;;26.08;35.42;98373.31;8485715;28;20239;-77
2022/05/17 13:41:18;;;;;;;4.67;3.03;;;;;;;25.90;36.41;98372.47;8485926;28;20290;-77
2022/05/17 13:45:31;;;;;;;6.00;2.77;;;;;;;25.68;35.91;98366.69;8485737;28;20534;-77
2022/05/17 13:49:37;;;;;;;4.33;2.57;;;;;;;25.57;36.50;98366.94;8485256;28;20234;-77
2022/05/17 13:53:43;;;;;;;7.50;2.60;;;;;;;25.59;37.40;98364.97;8485425;28;20235;-75
2022/05/17 13:57:48;;;;;;;5.07;2.47;;;;;;;25.40;36.37;98365.97;8485297;28;20406;-77
2022/05/17 14:01:55;;;;;;;6.63;2.30;;;;;;;25.16;36.42;98363.88;8485246;28;20292;-77
2022/05/17 14:06:01;;;;;;;5.77;2.13;;;;;;;25.41;35.83;98362.31;8485349;28;20244;-77
2022/05/17 14:14:35;;;;;;;6.40;2.10;;;;;;;26.35;33.25;98352.88;8450733;28;20235;-77
2022/05/17 14:18:41;;;;;;;4.87;2.23;;;;;;;26.63;33.00;98342.03;8451106;28;20564;-76
2022/05/17 14:22:44;;;;;;;6.03;2.10;;;;;;;27.15;33.35;98335.66;8450774;28;20236;-76
2022/05/17 14:26:50;;;;;;;4.23;2.10;;;;;;;26.34;34.16;98338.75;8450634;28;20227;-76
2022/05/17 14:30:56;;;;;;;7.37;2.40;;;;;;;26.05;34.62;98344.41;8450706;28;20567;-76
2022/05/17 14:35:00;;;;;;;5.60;2.10;;;;;;;26.04;34.47;98347.22;8450088;28;20231;-76
2022/05/17 14:39:04;;;;;;;5.10;2.40;;;;;;;26.01;34.69;98343.06;8450413;28;20227;-77
2022/05/17 14:43:22;;;;;;;6.50;2.30;;;;;;;25.74;35.82;98341.34;8449804;28;20226;-75
2022/05/17 14:47:27;;;;;;;6.77;2.20;;;;;;;25.59;35.29;98340.25;8449721;28;20238;-76
2022/05/17 14:51:31;;;;;;;4.47;2.07;;;;;;;25.53;35.67;98331.09;8449984;28;20227;-76
2022/05/17 14:55:34;;;;;;;5.07;2.13;;;;;;;25.47;35.75;98329.88;8449057;28;20237;-76
2022/05/17 14:59:37;;;;;;;6.50;2.40;;;;;;;25.80;35.73;98330.16;8450051;28;20228;-76
2022/05/17 15:03:44;;;;;;;6.47;2.20;;;;;;;25.56;35.81;98326.31;8449400;28;20526;-77
2022/05/17 15:07:50;;;;;;;6.37;2.30;;;;;;;26.10;35.11;98314.72;8447828;28;20232;-76
2022/05/17 15:11:54;;;;;;;4.90;2.10;;;;;;;26.22;33.84;98310.00;8449426;28;20518;-75
2022/05/17 15:15:58;;;;;;;4.27;1.80;;;;;;;26.31;34.01;98309.03;8449201;28;20525;-78
2022/05/17 15:20:08;;;;;;;5.00;1.80;;;;;;;26.23;34.67;98306.34;8449329;28;20227;-75
2022/05/17 15:24:13;;;;;;;6.57;1.90;;;;;;;26.42;33.70;98305.25;8448992;28;20238;-76
2022/05/17 15:28:16;;;;;;;3.60;2.00;;;;;;;26.29;32.33;98300.38;8448961;28;20235;-76
2022/05/17 15:32:19;;;;;;;3.17;1.50;;;;;;;26.33;33.23;98299.94;8455857;28;20228;-76
2022/05/17 15:36:22;;;;;;;3.20;1.70;;;;;;;26.33;32.68;98289.31;8481854;28;20242;-74
2022/05/17 15:40:26;;;;;;;3.33;1.90;;;;;;;26.39;32.49;98281.66;8482088;28;20234;-75
2022/05/17 15:44:29;;;;;;;6.90;1.90;;;;;;;26.21;32.85;98277.28;8481768;28;20230;-77
2022/05/17 15:57:15;;;;;;;4.50;1.90;;;;;;;25.83;33.50;98278.59;8481707;28;20237;-76
2022/05/17 16:01:21;;;;;;;3.50;1.63;;;;;;;25.81;34.32;98273.44;8481812;28;20233;-76
2022/05/17 16:05:24;;;;;;;4.30;1.80;;;;;;;25.69;33.41;98283.47;8481517;28;20230;-75
2022/05/17 16:09:27;;;;;;;2.97;1.83;;;;;;;25.70;33.23;98276.34;8481851;28;20259;-77
2022/05/17 16:13:32;;;;;;;17.57;2.20;;;;;;;25.68;33.46;98271.22;8481075;28;20237;-77
2022/05/17 16:17:36;;;;;;;3.53;1.93;;;;;;;25.75;34.52;98272.25;8481235;28;20230;-77
2022/05/17 16:21:41;;;;;;;4.47;1.83;;;;;;;25.74;34.06;98275.91;8481382;28;20252;-77
2022/05/17 16:25:44;;;;;;;4.53;1.97;;;;;;;25.74;34.25;98277.69;8480877;28;20242;-77
2022/05/17 16:29:49;;;;;;;3.53;1.70;;;;;;;25.74;33.18;98272.38;8479934;28;20226;-77
2022/05/17 16:33:52;;;;;;;9.67;2.10;;;;;;;25.61;34.61;98278.13;8480585;28;20263;-76
2022/05/17 16:37:55;;;;;;;3.40;2.00;;;;;;;25.67;34.76;98279.34;8478780;28;20221;-76
2022/05/17 16:41:58;;;;;;;11.37;2.53;;;;;;;25.49;34.54;98272.25;8463137;28;20221;-77
2022/05/17 16:46:03;;;;;;;4.03;2.17;;;;;;;25.41;34.55;98276.66;8479856;28;20290;-77
2022/05/17 16:50:14;;;;;;;4.83;2.13;;;;;;;25.29;35.19;98274.25;8480843;28;20234;-75
2022/05/17 16:54:21;;;;;;;5.30;1.93;;;;;;;25.27;34.86;98286.84;8480739;28;20536;-75
2022/05/17 16:58:24;;;;;;;6.83;2.00;;;;;;;25.13;35.50;98285.53;8482948;28;20232;-76
2022/05/17 17:02:32;;;;;;;6.27;2.10;;;;;;;25.07;35.50;98285.31;8487092;28;20232;-75
2022/05/17 17:06:36;;;;;;;4.47;1.97;;;;;;;24.96;35.39;98281.91;8486917;28;20240;-75
2022/05/17 17:10:40;;;;;;;3.47;1.90;;;;;;;24.88;36.09;98291.59;8487045;28;20240;-76
2022/05/17 17:14:43;;;;;;;5.00;2.03;;;;;;;24.74;36.48;98283.19;8491661;28;20403;-76
2022/05/17 17:18:48;;;;;;;6.33;1.80;;;;;;;24.69;36.32;98281.97;8467779;28;20221;-74
2022/05/17 17:22:52;;;;;;;4.40;2.03;;;;;;;24.66;37.19;98287.59;8452665;28;20237;-74
2022/05/17 17:26:55;;;;;;;3.47;1.93;;;;;;;24.74;37.12;98295.59;8452384;28;20236;-74
2022/05/17 17:30:58;;;;;;;4.87;2.07;;;;;;;24.69;37.67;98293.38;8451967;28;20263;-74
2022/05/17 17:39:25;;;;;;;9.33;2.10;;;;;;;24.49;36.65;98297.94;8408767;28;20240;-73
2022/05/17 17:43:28;;;;;;;4.10;2.20;;;;;;;24.38;36.77;98291.03;8437733;28;20230;-74
2022/05/17 17:47:31;;;;;;;4.60;1.90;;;;;;;24.36;37.28;98308.88;8439243;28;20243;-72
2022/05/17 17:51:35;;;;;;;2.60;1.50;;;;;;;24.29;37.20;98302.50;8443776;28;20231;-73
2022/05/17 17:55:38;;;;;;;4.23;2.10;;;;;;;24.26;37.74;98302.00;8432296;28;20227;-71
2022/05/17 17:59:41;;;;;;;7.67;2.20;;;;;;;24.17;37.73;98304.50;8446403;28;20228;-76
2022/05/17 18:03:44;;;;;;;3.73;2.00;;;;;;;24.05;38.47;98310.16;8444729;28;20416;-74
2022/05/17 18:07:48;;;;;;;3.87;2.13;;;;;;;24.12;38.69;98312.06;8450300;28;20226;-77
2022/05/17 18:11:51;;;;;;;5.43;2.30;;;;;;;24.11;38.65;98309.56;8449894;28;20238;-75
2022/05/17 18:15:55;;;;;;;9.50;2.20;;;;;;;24.03;39.96;98309.44;8450867;28;20232;-74
2022/05/17 18:19:58;;;;;;;5.47;2.23;;;;;;;23.97;40.59;98317.00;8450705;28;20255;-75
2022/05/17 18:24:02;;;;;;;7.20;2.27;;;;;;;23.93;41.02;98320.91;8450793;28;20226;-77
2022/05/17 18:28:07;;;;;;;5.70;2.50;;;;;;;23.83;41.85;98321.91;8450640;28;20518;-77
2022/05/17 18:32:15;;;;;;;4.10;2.40;;;;;;;23.68;42.10;98324.13;8450570;28;20227;-77
2022/05/17 18:36:25;;;;;;;4.97;2.17;;;;;;;23.61;41.86;98329.16;8450128;28;20258;-77
2022/05/17 18:40:30;;;;;;;7.63;2.33;;;;;;;23.51;42.22;98333.63;8449824;28;20238;-78
2022/05/17 18:44:33;;;;;;;17.43;2.93;;;;;;;23.52;42.73;98332.66;8449558;28;20233;-75
2022/05/17 18:48:36;;;;;;;4.53;2.50;;;;;;;23.42;43.22;98335.31;8449885;28;20231;-76
2022/05/17 18:52:40;;;;;;;3.13;2.17;;;;;;;23.36;44.57;98334.06;8449626;28;20230;-76
2022/05/17 18:56:45;;;;;;;4.20;2.50;;;;;;;23.25;44.75;98336.84;8449605;28;20227;-76
2022/05/17 19:00:50;;;;;;;5.43;2.50;;;;;;;23.16;44.92;98346.44;8449287;28;20224;-76
2022/05/17 19:04:53;;;;;;;6.77;2.70;;;;;;;23.04;45.19;98342.25;8440761;28;20238;-76
2022/05/17 19:13:33;;;;;;;4.23;2.50;;;;;;;22.86;46.24;98355.25;8465148;28;20229;-75
2022/05/17 19:17:36;;;;;;;4.40;2.70;;;;;;;22.79;45.90;98364.69;8452831;28;20434;-74
2022/05/17 19:21:41;;;;;;;3.77;2.50;;;;;;;22.76;45.76;98362.34;8464746;28;20418;-75
2022/05/17 19:25:44;;;;;;;4.63;2.60;;;;;;;22.61;46.53;98367.16;8464532;28;20240;-77
2022/05/17 19:29:49;;;;;;;6.17;2.87;;;;;;;22.59;46.94;98371.72;8464358;28;20222;-76
2022/05/17 19:33:52;;;;;;;5.97;3.00;;;;;;;22.53;47.16;98372.28;8464546;28;20551;-77
2022/05/17 19:42:15;;;;;;;7.00;2.93;;;;;;;22.31;48.07;98378.56;8464292;28;20241;-76
2022/05/17 19:46:19;;;;;;;4.87;3.00;;;;;;;22.28;48.76;98384.94;8464128;28;20225;-76
2022/05/17 19:50:25;;;;;;;7.77;3.20;;;;;;;22.24;49.09;98383.53;8450661;28;20426;-75
2022/05/17 19:54:28;;;;;;;6.47;3.63;;;;;;;22.23;48.84;98384.47;8463779;28;20237;-76
2022/05/17 19:58:31;;;;;;;6.30;3.70;;;;;;;22.15;49.33;98389.56;8463947;28;20237;-76
2022/05/17 20:02:36;;;;;;;4.70;3.00;;;;;;;22.06;49.64;98393.81;8463773;28;20218;-76
2022/05/17 20:06:39;;;;;;;5.23;3.50;;;;;;;21.96;50.29;98392.94;8466554;28;20437;-76
2022/05/17 20:10:43;;;;;;;7.13;3.40;;;;;;;21.85;50.48;98391.19;8463724;28;20245;-75
2022/05/17 20:14:46;;;;;;;5.17;3.43;;;;;;;21.81;50.12;98389.78;8463642;28;20225;-74
2022/05/17 20:18:51;;;;;;;7.60;3.70;;;;;;;21.78;49.59;98393.53;8463596;28;20528;-75